createdAt,value
2019-03-05T00:01:54.130Z,5.92
2019-03-05T00:04:26.748Z,5.87
2019-03-05T00:06:59.898Z,5.88
2019-03-05T00:09:31.522Z,5.85
2019-03-05T00:12:05.554Z,5.88
2019-03-05T00:14:37.263Z,5.98
2019-03-05T00:17:09.513Z,5.95
2019-03-05T00:19:41.221Z,5.96
2019-03-05T00:22:12.961Z,5.93
2019-03-05T00:25:10.689Z,5.91
2019-03-05T00:27:51.844Z,5.88
2019-03-05T00:30:36.716Z,5.87
2019-03-05T00:33:33.001Z,5.91
2019-03-05T00:36:45.339Z,5.91
2019-03-05T00:39:47.542Z,5.90
2019-03-05T00:42:44.490Z,5.87
2019-03-05T00:45:34.766Z,5.89
2019-03-05T00:48:43.797Z,5.91
2019-03-05T00:51:52.946Z,5.86
2019-03-05T00:54:43.727Z,5.95
2019-03-05T00:57:42.606Z,5.92
2019-03-05T01:00:52.054Z,5.88
2019-03-05T01:03:58.539Z,5.90
2019-03-05T01:06:30.274Z,5.87
2019-03-05T01:09:03.176Z,5.90
2019-03-05T01:11:36.386Z,5.94
2019-03-05T01:14:11.423Z,6.02
2019-03-05T01:16:43.497Z,6.05
2019-03-05T01:19:16.894Z,6.06
2019-03-05T01:21:48.555Z,6.06
2019-03-05T01:24:20.184Z,6.10
2019-03-05T01:26:53.323Z,6.19
2019-03-05T01:29:25.033Z,6.23
2019-03-05T01:32:13.577Z,6.19
2019-03-05T01:35:12.975Z,6.23
2019-03-05T01:37:46.267Z,6.23
2019-03-05T01:40:36.606Z,6.23
2019-03-05T01:43:08.214Z,6.26
2019-03-05T01:45:41.147Z,6.30
2019-03-05T01:48:12.763Z,6.26
2019-03-05T01:50:45.604Z,6.28
2019-03-05T01:53:17.203Z,6.27
2019-03-05T01:55:48.745Z,6.27
2019-03-05T01:58:20.334Z,6.24
2019-03-05T02:00:52.036Z,6.20
2019-03-05T02:03:25.288Z,6.20
2019-03-05T02:05:59.122Z,6.15
2019-03-05T02:08:30.429Z,6.17
2019-03-05T02:11:02.232Z,6.10
2019-03-05T02:13:33.887Z,6.11
2019-03-05T02:16:07.229Z,6.08
2019-03-05T02:18:38.888Z,6.07
2019-03-05T02:21:11.890Z,6.04
2019-03-05T02:24:03.833Z,6.03
2019-03-05T02:27:10.622Z,6.05
2019-03-05T02:30:06.020Z,6.09
2019-03-05T02:33:24.062Z,6.07
2019-03-05T02:36:08.450Z,6.08
2019-03-05T02:38:59.460Z,6.04
2019-03-05T02:41:45.570Z,6.07
2019-03-05T02:44:44.989Z,6.11
2019-03-05T02:47:43.341Z,6.14
2019-03-05T02:50:36.351Z,6.14
2019-03-05T02:53:36.249Z,6.18
2019-03-05T02:56:35.948Z,6.13
2019-03-05T02:59:08.139Z,6.10
2019-03-05T03:01:49.699Z,6.12
2019-03-05T03:04:23.544Z,5.96
2019-03-05T03:06:55.352Z,5.88
2019-03-05T03:10:03.823Z,5.82
2019-03-05T03:12:35.473Z,5.79
2019-03-05T03:15:09.763Z,5.83
2019-03-05T03:17:41.590Z,5.81
2019-03-05T03:20:14.702Z,5.89
2019-03-05T03:22:47.977Z,5.91
2019-03-05T03:25:21.207Z,5.94
2019-03-05T03:27:52.964Z,5.91
2019-03-05T03:30:28.835Z,5.94
2019-03-05T03:33:00.778Z,5.95
2019-03-05T03:35:32.337Z,5.95
2019-03-05T03:38:04.021Z,5.96
2019-03-05T03:40:35.639Z,5.93
2019-03-05T03:43:07.446Z,5.89
2019-03-05T03:45:38.999Z,5.87
2019-03-05T03:48:10.699Z,5.86
2019-03-05T03:50:42.267Z,5.87
2019-03-05T03:53:13.808Z,5.99
2019-03-05T03:55:45.490Z,6.02
2019-03-05T03:58:20.051Z,6.08
2019-03-05T04:00:51.993Z,6.18
2019-03-05T04:03:23.583Z,6.25
2019-03-05T04:05:55.159Z,6.28
2019-03-05T04:08:26.788Z,6.29
2019-03-05T04:10:58.454Z,6.30
2019-03-05T04:13:30.134Z,6.27
2019-03-05T04:16:01.814Z,6.23
2019-03-05T04:18:33.394Z,6.22
2019-03-05T04:21:07.222Z,6.22
2019-03-05T04:23:38.950Z,6.26
2019-03-05T04:26:10.784Z,6.28
2019-03-05T04:28:42.351Z,6.25
2019-03-05T04:31:14.033Z,6.28
2019-03-05T04:33:46.638Z,6.31
2019-03-05T04:36:18.432Z,6.35
2019-03-05T04:38:50.063Z,6.31
2019-03-05T04:41:21.730Z,6.29
2019-03-05T04:43:53.341Z,6.21
2019-03-05T04:46:52.772Z,6.18
2019-03-05T04:49:35.790Z,6.02
2019-03-05T04:52:12.671Z,5.98
2019-03-05T04:54:44.431Z,5.99
2019-03-05T04:57:16.051Z,5.93
2019-03-05T04:59:47.711Z,5.93
2019-03-05T05:02:21.599Z,5.93
2019-03-05T05:04:53.072Z,6.02
2019-03-05T05:07:24.693Z,6.09
2019-03-05T05:09:56.368Z,6.10
2019-03-05T05:12:29.601Z,6.15
2019-03-05T05:15:03.217Z,6.11
2019-03-05T05:17:34.470Z,6.12
2019-03-05T05:20:08.921Z,6.14
2019-03-05T05:22:40.651Z,6.18
2019-03-05T05:25:12.452Z,6.28
2019-03-05T05:27:45.424Z,6.38
2019-03-05T05:30:38.731Z,6.48
2019-03-05T05:33:10.431Z,6.56
2019-03-05T05:35:42.091Z,6.71
2019-03-05T05:38:15.128Z,6.82
2019-03-05T05:40:47.581Z,6.88
2019-03-05T05:43:22.151Z,7.00
2019-03-05T05:45:56.016Z,7.10
2019-03-05T05:48:27.719Z,7.24
2019-03-05T05:50:59.278Z,7.35
2019-03-05T05:53:30.923Z,7.47
2019-03-05T05:56:02.551Z,7.65
2019-03-05T05:58:34.211Z,7.78
2019-03-05T06:01:09.840Z,7.95
2019-03-05T06:03:41.544Z,8.03
2019-03-05T06:06:13.263Z,8.12
2019-03-05T06:08:44.974Z,8.14
2019-03-05T06:11:16.722Z,8.20
2019-03-05T06:13:48.291Z,8.33
2019-03-05T06:16:19.980Z,8.46
2019-03-05T06:18:52.597Z,8.58
2019-03-05T06:21:24.272Z,8.74
2019-03-05T06:23:58.584Z,8.81
2019-03-05T06:26:30.170Z,8.97
2019-03-05T06:29:03.292Z,9.05
2019-03-05T06:31:36.193Z,9.10
2019-03-05T06:34:09.109Z,9.11
2019-03-05T06:36:55.378Z,9.10
2019-03-05T06:39:27.090Z,9.20
2019-03-05T06:41:58.747Z,9.34
2019-03-05T06:44:30.296Z,9.44
2019-03-05T06:47:02.021Z,9.53
2019-03-05T06:49:36.631Z,9.73
2019-03-05T06:52:08.230Z,9.87
2019-03-05T06:54:40.068Z,9.99
2019-03-05T06:57:11.726Z,10.12
2019-03-05T06:59:43.499Z,10.25
2019-03-05T07:02:15.150Z,10.29
2019-03-05T07:04:57.274Z,10.38
2019-03-05T07:07:31.116Z,10.47
2019-03-05T07:10:19.914Z,10.64
2019-03-05T07:13:10.959Z,10.74
2019-03-05T07:16:06.551Z,10.83
2019-03-05T07:18:41.788Z,10.92
2019-03-05T07:21:57.239Z,10.95
2019-03-05T07:25:06.479Z,11.01
2019-03-05T07:27:43.640Z,11.08
2019-03-05T07:30:25.739Z,11.21
2019-03-05T07:32:58.875Z,11.28
2019-03-05T07:35:32.757Z,11.45
2019-03-05T07:38:04.638Z,11.61
2019-03-05T07:40:36.268Z,11.73
2019-03-05T07:43:08.118Z,11.88
2019-03-05T07:45:39.807Z,12.02
2019-03-05T07:48:11.597Z,12.12
2019-03-05T07:50:45.193Z,12.22
2019-03-05T07:53:16.971Z,12.35
2019-03-05T07:55:49.781Z,12.36
2019-03-05T07:58:23.873Z,12.51
2019-03-05T08:00:55.588Z,12.56
2019-03-05T08:03:27.237Z,12.71
2019-03-05T08:05:59.031Z,12.79
2019-03-05T08:09:07.725Z,12.84
2019-03-05T08:11:45.267Z,12.92
2019-03-05T08:14:58.024Z,13.06
2019-03-05T08:17:29.808Z,13.33
2019-03-05T08:20:01.506Z,13.53
2019-03-05T08:22:34.839Z,13.63
2019-03-05T08:25:09.264Z,13.84
2019-03-05T08:27:41.193Z,13.92
2019-03-05T08:30:15.454Z,14.09
2019-03-05T08:32:47.094Z,14.17
2019-03-05T08:35:18.834Z,14.39
2019-03-05T08:37:50.708Z,14.54
2019-03-05T08:40:22.636Z,14.65
2019-03-05T08:42:54.353Z,14.98
2019-03-05T08:45:29.655Z,15.14
2019-03-05T08:47:59.510Z,15.37
2019-03-05T08:50:33.853Z,15.38
2019-03-05T08:53:05.632Z,15.48
2019-03-05T08:55:37.599Z,15.56
2019-03-05T08:58:11.895Z,15.55
2019-03-05T09:00:43.708Z,15.72
2019-03-05T09:03:15.385Z,15.93
2019-03-05T09:05:47.216Z,16.14
2019-03-05T09:08:18.973Z,16.16
2019-03-05T09:10:52.236Z,16.32
2019-03-05T09:13:32.345Z,16.35
2019-03-05T09:15:59.696Z,16.39
2019-03-05T09:18:31.428Z,16.58
2019-03-05T09:21:03.111Z,16.82
2019-03-05T09:23:34.719Z,17.08
2019-03-05T09:26:06.598Z,17.36
2019-03-05T09:28:38.361Z,17.70
2019-03-05T09:31:10.243Z,17.82
2019-03-05T09:33:41.996Z,17.64
2019-03-05T09:36:13.895Z,17.45
2019-03-05T09:38:45.652Z,17.50
2019-03-05T09:41:17.481Z,17.52
2019-03-05T09:43:52.320Z,17.60
2019-03-05T09:46:25.515Z,17.56
2019-03-05T09:48:57.383Z,17.75
2019-03-05T09:51:29.067Z,17.99
2019-03-05T09:54:00.856Z,18.21
2019-03-05T09:56:32.502Z,18.31
2019-03-05T09:59:05.828Z,18.29
2019-03-05T10:01:37.513Z,18.16
2019-03-05T10:04:09.366Z,18.41
2019-03-05T10:06:40.883Z,18.83
2019-03-05T10:09:12.652Z,19.21
2019-03-05T10:11:45.183Z,19.32
2019-03-05T10:14:19.844Z,19.54
2019-03-05T10:16:52.644Z,19.63
2019-03-05T10:19:26.923Z,19.30
2019-03-05T10:21:58.005Z,19.30
2019-03-05T10:24:29.598Z,19.43
2019-03-05T10:27:01.315Z,19.53
2019-03-05T10:29:33.087Z,19.50
2019-03-05T10:32:04.980Z,19.16
2019-03-05T10:34:36.646Z,19.09
2019-03-05T10:37:12.555Z,19.26
2019-03-05T10:39:41.973Z,19.78
2019-03-05T10:42:13.705Z,20.32
2019-03-05T10:44:45.525Z,20.70
2019-03-05T10:47:20.149Z,20.90
2019-03-05T10:49:52.093Z,21.00
2019-03-05T10:52:23.645Z,21.14
2019-03-05T10:54:55.482Z,21.44
2019-03-05T10:57:27.275Z,21.57
2019-03-05T10:59:58.984Z,21.23
2019-03-05T11:02:35.717Z,21.07
2019-03-05T11:05:07.704Z,21.25
2019-03-05T11:07:39.662Z,21.25
2019-03-05T11:10:12.422Z,20.87
2019-03-05T11:12:45.716Z,20.63
2019-03-05T11:15:24.631Z,20.41
2019-03-05T11:17:56.689Z,20.64
2019-03-05T11:20:28.603Z,20.73
2019-03-05T11:23:01.611Z,20.77
2019-03-05T11:25:33.329Z,20.93
2019-03-05T11:28:07.758Z,21.13
2019-03-05T11:30:39.921Z,21.20
2019-03-05T11:33:12.119Z,21.15
2019-03-05T11:35:43.836Z,21.01
2019-03-05T11:38:15.747Z,21.12
2019-03-05T11:40:48.842Z,21.22
2019-03-05T11:43:21.639Z,21.29
2019-03-05T11:45:53.463Z,21.15
2019-03-05T11:48:26.701Z,21.02
2019-03-05T11:50:58.695Z,20.98
2019-03-05T11:53:30.457Z,20.88
2019-03-05T11:56:14.156Z,20.62
2019-03-05T11:58:48.855Z,20.50
2019-03-05T12:01:43.247Z,20.47
2019-03-05T12:04:15.580Z,20.27
2019-03-05T12:06:47.277Z,19.89
2019-03-05T12:09:20.010Z,19.65
2019-03-05T12:11:51.540Z,19.42
2019-03-05T12:14:23.323Z,19.17
2019-03-05T12:16:54.950Z,18.85
2019-03-05T12:19:26.694Z,18.66
2019-03-05T12:21:58.528Z,18.48
2019-03-05T12:24:30.426Z,18.39
2019-03-05T12:27:04.202Z,18.31
2019-03-05T12:29:36.031Z,18.27
2019-03-05T12:32:07.913Z,18.20
2019-03-05T12:34:39.672Z,18.19
2019-03-05T12:37:11.558Z,18.14
2019-03-05T12:39:43.271Z,18.12
2019-03-05T12:42:15.963Z,18.06
2019-03-05T12:44:47.878Z,17.94
2019-03-05T12:47:21.355Z,17.83
2019-03-05T12:49:54.661Z,17.84
2019-03-05T12:52:26.303Z,17.86
2019-03-05T12:54:59.711Z,17.94
2019-03-05T12:57:31.456Z,17.92
2019-03-05T13:00:03.464Z,18.03
2019-03-05T13:02:36.666Z,18.03
2019-03-05T13:05:11.054Z,18.05
2019-03-05T13:07:46.494Z,18.09
2019-03-05T13:10:20.249Z,18.17
2019-03-05T13:12:52.230Z,18.09
2019-03-05T13:15:27.666Z,18.05
2019-03-05T13:17:59.415Z,18.04
2019-03-05T13:20:33.850Z,17.99
2019-03-05T13:23:09.672Z,17.95
2019-03-05T13:25:42.381Z,17.86
2019-03-05T13:28:14.146Z,17.83
2019-03-05T13:30:46.038Z,17.76
2019-03-05T13:33:17.935Z,17.81
2019-03-05T13:35:49.858Z,17.83
2019-03-05T13:38:23.029Z,17.89
2019-03-05T13:40:54.694Z,17.77
2019-03-05T13:43:26.384Z,17.75
2019-03-05T13:45:58.147Z,17.59
2019-03-05T13:49:19.307Z,17.56
2019-03-05T13:52:32.115Z,17.51
2019-03-05T13:55:27.062Z,17.37
2019-03-05T13:59:04.578Z,17.28
2019-03-05T14:01:36.339Z,17.26
2019-03-05T14:04:13.178Z,17.09
2019-03-05T14:07:24.667Z,17.02
2019-03-05T14:09:56.402Z,17.00
2019-03-05T14:12:28.113Z,17.03
2019-03-05T14:14:59.765Z,16.98
2019-03-05T14:17:34.899Z,16.93
2019-03-05T14:20:09.314Z,16.92
2019-03-05T14:22:40.870Z,17.01
2019-03-05T14:25:14.318Z,17.02
2019-03-05T14:27:47.155Z,17.04
2019-03-05T14:30:21.115Z,16.95
2019-03-05T14:32:56.083Z,16.91
2019-03-05T14:35:30.025Z,16.87
2019-03-05T14:38:04.015Z,16.85
2019-03-05T14:40:37.815Z,16.79
2019-03-05T14:43:09.470Z,16.65
2019-03-05T14:45:41.350Z,16.65
2019-03-05T14:48:13.252Z,16.60
2019-03-05T14:50:44.994Z,16.53
2019-03-05T14:53:16.810Z,16.53
2019-03-05T14:55:49.533Z,16.50
2019-03-05T14:58:21.133Z,16.49
2019-03-05T15:00:53.095Z,16.50
2019-03-05T15:03:25.151Z,16.47
2019-03-05T15:05:56.930Z,16.38
2019-03-05T15:08:31.366Z,16.31
2019-03-05T15:11:03.144Z,16.17
2019-03-05T15:13:34.960Z,16.15
2019-03-05T15:16:08.423Z,16.08
2019-03-05T15:18:40.244Z,16.04
2019-03-05T15:21:13.346Z,15.95
2019-03-05T15:23:46.689Z,15.82
2019-03-05T15:26:18.525Z,15.76
2019-03-05T15:28:56.132Z,15.68
2019-03-05T15:31:23.795Z,15.61
2019-03-05T15:33:55.611Z,15.56
2019-03-05T15:36:27.479Z,15.47
2019-03-05T15:38:59.211Z,15.42
2019-03-05T15:41:31.168Z,15.44
2019-03-05T15:44:02.926Z,15.34
2019-03-05T15:46:37.549Z,15.32
2019-03-05T15:49:12.397Z,15.28
2019-03-05T15:51:44.204Z,15.21
2019-03-05T15:54:15.964Z,15.14
2019-03-05T15:56:47.692Z,15.12
2019-03-05T15:59:21.820Z,15.07
2019-03-05T16:01:53.554Z,15.07
2019-03-05T16:04:25.309Z,15.08
2019-03-05T16:06:56.981Z,14.93
2019-03-05T16:09:28.733Z,14.85
2019-03-05T16:12:00.449Z,14.83
2019-03-05T16:14:32.954Z,14.75
2019-03-05T16:17:05.457Z,14.66
2019-03-05T16:19:37.250Z,14.63
2019-03-05T16:22:14.183Z,14.59
2019-03-05T16:24:46.465Z,14.55
2019-03-05T16:27:18.307Z,14.54
2019-03-05T16:29:52.050Z,14.54
2019-03-05T16:32:28.187Z,14.53
2019-03-05T16:35:22.625Z,14.45
2019-03-05T16:38:14.996Z,14.41
2019-03-05T16:41:20.609Z,14.36
2019-03-05T16:43:57.727Z,14.28
2019-03-05T16:46:55.325Z,14.23
2019-03-05T16:50:02.455Z,14.19
2019-03-05T16:52:46.683Z,14.09
2019-03-05T16:55:45.185Z,14.04
2019-03-05T16:58:37.545Z,14.11
2019-03-05T17:01:29.141Z,14.01
2019-03-05T17:04:19.582Z,14.05
2019-03-05T17:07:16.344Z,14.02
2019-03-05T17:10:05.706Z,13.97
2019-03-05T17:12:37.777Z,13.88
2019-03-05T17:15:10.219Z,13.86
2019-03-05T17:17:42.079Z,13.77
2019-03-05T17:20:14.068Z,13.71
2019-03-05T17:22:46.007Z,13.64
2019-03-05T17:25:18.500Z,13.58
2019-03-05T17:27:50.337Z,13.63
2019-03-05T17:30:22.131Z,13.61
2019-03-05T17:32:56.953Z,13.55
2019-03-05T17:35:29.866Z,13.59
2019-03-05T17:38:01.642Z,13.59
2019-03-05T17:40:35.334Z,13.57
2019-03-05T17:43:07.797Z,13.51
2019-03-05T17:45:39.696Z,13.43
2019-03-05T17:48:12.961Z,13.37
2019-03-05T17:50:44.711Z,13.40
2019-03-05T17:53:16.442Z,13.35
2019-03-05T17:55:48.542Z,13.36
2019-03-05T17:58:20.092Z,13.39
2019-03-05T18:00:52.900Z,13.31
2019-03-05T18:03:24.482Z,13.23
2019-03-05T18:05:56.332Z,13.27
2019-03-05T18:08:27.992Z,13.30
2019-03-05T18:10:59.872Z,13.29
2019-03-05T18:13:31.632Z,13.29
2019-03-05T18:16:03.745Z,13.21
2019-03-05T18:18:35.429Z,13.05
2019-03-05T18:21:07.449Z,13.10
2019-03-05T18:23:39.360Z,13.03
2019-03-05T18:26:11.010Z,13.03
2019-03-05T18:28:42.729Z,13.01
2019-03-05T18:31:14.643Z,12.93
2019-03-05T18:33:46.331Z,12.97
2019-03-05T18:36:18.049Z,12.97
2019-03-05T18:38:49.911Z,12.94
2019-03-05T18:41:21.731Z,12.90
2019-03-05T18:43:53.900Z,12.84
2019-03-05T18:46:28.712Z,12.86
2019-03-05T18:49:04.608Z,12.82
2019-03-05T18:51:36.331Z,12.88
2019-03-05T18:54:08.210Z,12.90
2019-03-05T18:56:40.229Z,12.89
2019-03-05T18:59:14.620Z,12.76
2019-03-05T19:01:48.868Z,12.77
2019-03-05T19:04:22.152Z,12.77
2019-03-05T19:06:53.881Z,12.78
2019-03-05T19:09:27.611Z,12.68
2019-03-05T19:12:00.731Z,12.67
2019-03-05T19:14:32.431Z,12.59
2019-03-05T19:17:04.209Z,12.67
2019-03-05T19:19:35.739Z,12.66
2019-03-05T19:22:09.874Z,12.60
2019-03-05T19:24:41.545Z,12.58
2019-03-05T19:27:14.852Z,12.53
2019-03-05T19:29:46.741Z,12.49
2019-03-05T19:32:18.422Z,12.56
2019-03-05T19:34:49.954Z,12.46
2019-03-05T19:37:21.681Z,12.48
2019-03-05T19:39:55.531Z,12.53
2019-03-05T19:42:27.191Z,12.48
2019-03-05T19:44:58.810Z,12.52
2019-03-05T19:47:30.510Z,12.52
2019-03-05T19:50:02.149Z,12.48
2019-03-05T19:52:34.072Z,12.43
2019-03-05T19:55:09.071Z,12.49
2019-03-05T19:57:40.721Z,12.42
2019-03-05T20:00:16.149Z,12.34
2019-03-05T20:02:49.005Z,12.29
2019-03-05T20:05:20.727Z,12.34
2019-03-05T20:07:52.411Z,12.42
2019-03-05T20:10:24.149Z,12.43
2019-03-05T20:12:56.911Z,12.42
2019-03-05T20:15:28.531Z,12.32
2019-03-05T20:18:00.264Z,12.34
2019-03-05T20:20:32.059Z,12.40
2019-03-05T20:23:03.824Z,12.27
2019-03-05T20:25:35.759Z,12.28
2019-03-05T20:28:08.001Z,12.18
2019-03-05T20:30:39.871Z,12.25
2019-03-05T20:33:13.662Z,12.15
2019-03-05T20:35:46.693Z,12.18
2019-03-05T20:38:18.475Z,12.12
2019-03-05T20:40:50.363Z,12.08
2019-03-05T20:43:22.449Z,12.05
2019-03-05T20:45:55.810Z,12.13
2019-03-05T20:48:28.361Z,12.04
2019-03-05T20:51:00.161Z,12.08
2019-03-05T20:53:33.435Z,12.07
2019-03-05T20:56:05.176Z,12.07
2019-03-05T20:58:40.104Z,12.04
2019-03-05T21:01:11.983Z,12.06
2019-03-05T21:03:43.867Z,11.98
2019-03-05T21:06:15.546Z,11.97
2019-03-05T21:08:47.309Z,11.95
2019-03-05T21:11:19.172Z,11.92
2019-03-05T21:13:53.836Z,11.96
2019-03-05T21:16:25.509Z,11.92
2019-03-05T21:18:57.302Z,11.84
2019-03-05T21:21:29.236Z,11.80
2019-03-05T21:24:01.034Z,11.90
2019-03-05T21:26:32.728Z,11.79
2019-03-05T21:29:04.527Z,11.76
2019-03-05T21:31:37.159Z,11.65
2019-03-05T21:34:10.099Z,11.76
2019-03-05T21:36:41.859Z,11.81
2019-03-05T21:39:18.479Z,11.63
2019-03-05T21:41:50.249Z,11.65
2019-03-05T21:44:22.052Z,11.65
2019-03-05T21:46:55.128Z,11.62
2019-03-05T21:49:26.899Z,11.65
2019-03-05T21:52:02.748Z,11.50
2019-03-05T21:54:34.560Z,11.50
2019-03-05T21:57:06.516Z,11.27
2019-03-05T21:59:38.369Z,11.30
2019-03-05T22:02:10.089Z,11.30
2019-03-05T22:04:41.717Z,11.22
2019-03-05T22:07:13.612Z,11.21
2019-03-05T22:09:47.000Z,11.13
2019-03-05T22:12:18.695Z,10.88
2019-03-05T22:14:51.282Z,10.44
2019-03-05T22:17:23.212Z,10.18
2019-03-05T22:19:54.963Z,10.01
2019-03-05T22:22:26.939Z,9.65
2019-03-05T22:24:58.722Z,9.45
2019-03-05T22:27:31.878Z,9.34
2019-03-05T22:30:05.620Z,9.37
2019-03-05T22:32:37.866Z,9.46
2019-03-05T22:35:09.958Z,9.41
2019-03-05T22:37:42.109Z,9.48
2019-03-05T22:40:15.550Z,9.49
2019-03-05T22:42:48.841Z,9.58
2019-03-05T22:45:22.160Z,9.53
2019-03-05T22:47:55.651Z,9.42
2019-03-05T22:50:27.322Z,9.41
2019-03-05T22:52:59.322Z,9.43
2019-03-05T22:55:31.023Z,9.47
2019-03-05T22:58:03.063Z,9.34
2019-03-05T23:00:58.823Z,9.36
2019-03-05T23:03:32.062Z,9.28
2019-03-05T23:06:06.663Z,9.21
2019-03-05T23:08:38.503Z,9.08
2019-03-05T23:11:10.383Z,9.09
2019-03-05T23:13:43.706Z,9.18
2019-03-05T23:16:15.553Z,9.15
2019-03-05T23:18:48.224Z,9.05
2019-03-05T23:21:20.115Z,9.06
2019-03-05T23:23:52.098Z,9.14
2019-03-05T23:26:23.854Z,9.15
2019-03-05T23:29:02.813Z,9.19
2019-03-05T23:31:34.571Z,9.22
2019-03-05T23:34:06.730Z,9.19
2019-03-05T23:36:38.654Z,9.21
2019-03-05T23:39:13.961Z,9.23
2019-03-05T23:41:47.881Z,9.26
2019-03-05T23:44:19.543Z,9.16
2019-03-05T23:46:51.282Z,9.22
2019-03-05T23:49:24.005Z,9.20
2019-03-05T23:51:55.731Z,9.19
2019-03-05T23:54:27.533Z,9.14
2019-03-05T23:56:59.098Z,9.11
2019-03-05T23:59:30.840Z,9.05
